Decoded Metar for KFSM (FORT SMITH in AR, USA) (IATA:FSM) | Meteo·Mobile Aviation Weather
aviador You're here:

KFSM Decoded Metar

FORT SMITH in AR, USA
Report Time2019-04-19 09:53:00
UTC Time2019-04-19 10:24:33
Flight Rules vfr VFR
Wind290° at 11 kt
W.Decomp.*RWY 25: 9.0 kt HW 6.3 kt RCW
RWY 01: 1.0 kt HW 11 kt LCW
Visibility9999 m
Phenomena:N/A
Clouds:Scattered 075 Hf
Broken 100 Hf
Expected CloudBase > 2,000 ft AGL from Temp-Dew spread
Ceiling10,000 ft
Temp11°C (ISA -3)
Dew Point06°C (72% RH)
AAT6.2°C
QNH1012 hPa
Density Alt253 ft
Elevation459 ft
Report Wrong Elevation
Raw Report
KFSM 190953Z AUTO 29011KT 10SM SCT075 BKN100 11/06 A2987 RMK AO2
SLP111 T01060056=

Extra information for KFSM:More info

Metar Taf Metar & Taf Last 4 Metars F.Rules Stats Wind Profile Meteogram Temp Stats Airport Information Weather charts Add Link Nearby VenuesMetar ALERT Operation Metar Decoded Social comments

AIRNAV info for KFSM